createdAt,value
2023-07-11T07:42:54.669Z,40.36
2023-07-11T07:43:06.276Z,40.12
2023-07-11T07:43:17.596Z,40.06
2023-07-11T07:43:29.173Z,40.02
2023-07-11T07:43:40.533Z,40.04
2023-07-11T07:43:52.126Z,40.01
2023-07-11T07:44:03.490Z,40.01
2023-07-11T07:44:15.050Z,39.98
2023-07-11T07:44:26.389Z,39.99
2023-07-11T07:44:37.974Z,39.98
2023-07-11T07:44:49.289Z,39.96
2023-07-11T07:45:00.855Z,39.95
2023-07-11T07:45:12.192Z,39.92
2023-07-11T07:45:23.787Z,39.94
2023-07-11T07:45:35.122Z,39.94
2023-07-11T07:45:46.975Z,39.91
2023-07-11T07:45:58.320Z,39.96
2023-07-11T07:46:09.919Z,39.93
2023-07-11T07:46:21.358Z,39.92
2023-07-11T07:46:32.985Z,39.93
2023-07-11T07:46:44.317Z,39.90
2023-07-11T07:46:55.964Z,39.89
2023-07-11T07:47:07.409Z,39.91
2023-07-11T07:47:18.999Z,39.90
2023-07-11T07:47:30.386Z,39.89
2023-07-11T07:47:41.988Z,39.90
2023-07-11T07:47:53.331Z,39.88
2023-07-11T07:48:04.915Z,39.88
2023-07-11T07:48:16.239Z,39.90
2023-07-11T07:48:27.880Z,39.88
2023-07-11T07:48:39.217Z,39.87
2023-07-11T07:48:50.810Z,39.86
2023-07-11T07:49:02.144Z,39.91
2023-07-11T07:49:13.759Z,39.88
2023-07-11T07:49:25.085Z,39.88
2023-07-11T07:49:49.203Z,39.89
2023-07-11T07:49:54.864Z,39.98
2023-07-11T07:50:12.156Z,39.94
2023-07-11T07:50:23.819Z,39.92
2023-07-11T07:50:35.127Z,39.89
2023-07-11T07:50:46.714Z,39.90
2023-07-11T07:50:58.014Z,39.91
2023-07-11T07:51:09.884Z,39.90
2023-07-11T07:51:21.672Z,39.85
2023-07-11T07:51:32.987Z,39.88
2023-07-11T07:51:44.581Z,39.90
2023-07-11T07:51:55.898Z,39.91
2023-07-11T07:52:07.489Z,39.90
2023-07-11T07:52:18.828Z,39.92
2023-07-11T07:52:30.415Z,39.89
2023-07-11T07:52:41.743Z,39.90
2023-07-11T07:52:53.301Z,39.92
2023-07-11T07:53:04.636Z,39.91
2023-07-11T07:53:16.207Z,39.91
2023-07-11T07:53:27.561Z,39.91
2023-07-11T07:53:39.173Z,39.91
2023-07-11T07:53:50.550Z,39.94
2023-07-11T07:54:02.124Z,39.90
2023-07-11T07:54:13.502Z,39.91
2023-07-11T07:54:25.056Z,39.89
2023-07-11T07:54:36.377Z,39.92
2023-07-11T07:54:47.971Z,39.92
2023-07-11T07:54:59.299Z,39.91
2023-07-11T07:55:10.894Z,39.91
2023-07-11T07:55:22.212Z,39.92
2023-07-11T07:55:33.773Z,39.91
2023-07-11T07:55:45.132Z,39.92
2023-07-11T07:55:56.699Z,39.91
2023-07-11T07:56:08.000Z,39.91
2023-07-11T07:56:19.569Z,39.91
2023-07-11T07:56:30.883Z,39.92
2023-07-11T07:56:42.490Z,39.92
2023-07-11T07:56:53.837Z,39.92
2023-07-11T07:57:05.431Z,39.94
2023-07-11T07:57:16.738Z,39.92
2023-07-11T07:57:28.306Z,39.93
2023-07-11T07:57:39.654Z,39.93
2023-07-11T07:57:51.287Z,39.92
2023-07-11T07:58:02.599Z,39.92
2023-07-11T07:58:15.720Z,39.92
2023-07-11T07:58:41.274Z,40.02
2023-07-11T07:58:43.397Z,40.08
2023-07-11T07:58:50.080Z,40.07
2023-07-11T07:59:01.422Z,39.99
2023-07-11T07:59:12.996Z,39.97
2023-07-11T07:59:24.350Z,39.96
2023-07-11T07:59:35.935Z,39.95
2023-07-11T07:59:47.278Z,39.94
2023-07-11T07:59:58.850Z,39.95
2023-07-11T08:00:10.181Z,39.96
2023-07-11T08:00:21.734Z,39.94
2023-07-11T08:00:33.061Z,39.95
2023-07-11T08:00:44.643Z,39.95
2023-07-11T08:00:55.984Z,39.93
2023-07-11T08:01:08.028Z,39.95
2023-07-11T08:01:19.852Z,39.93
2023-07-11T08:01:31.200Z,39.93
2023-07-11T08:01:42.769Z,39.96
2023-07-11T08:01:54.090Z,39.93
2023-07-11T08:02:05.692Z,39.95
2023-07-11T08:02:17.089Z,39.95
2023-07-11T08:02:28.753Z,39.95
2023-07-11T08:02:40.071Z,39.96
2023-07-11T08:02:51.743Z,39.95
2023-07-11T08:03:03.218Z,39.94
2023-07-11T08:03:14.907Z,39.96
2023-07-11T08:03:26.332Z,39.96
2023-07-11T08:03:37.940Z,39.94
2023-07-11T08:03:49.417Z,39.97
2023-07-11T08:04:01.090Z,39.94
2023-07-11T08:04:12.660Z,39.94
2023-07-11T08:04:24.349Z,39.96
2023-07-11T08:04:35.784Z,39.97
2023-07-11T08:04:47.412Z,39.96
2023-07-11T08:04:58.823Z,39.95
2023-07-11T08:05:10.418Z,39.96
2023-07-11T08:05:21.725Z,39.96
2023-07-11T08:05:33.317Z,39.95
2023-07-11T08:05:44.651Z,39.97
2023-07-11T08:06:09.502Z,39.95
2023-07-11T08:06:18.320Z,40.01
2023-07-11T08:06:29.666Z,39.98
2023-07-11T08:06:41.250Z,39.95
2023-07-11T08:06:52.553Z,39.98
2023-07-11T08:07:04.122Z,39.95
2023-07-11T08:07:15.428Z,39.95
2023-07-11T08:07:27.006Z,39.96
2023-07-11T08:07:39.929Z,39.93
2023-07-11T08:07:49.068Z,40.11
2023-07-11T08:08:00.521Z,40.01
2023-07-11T08:08:12.198Z,39.99
2023-07-11T08:08:23.587Z,39.97
2023-07-11T08:08:35.169Z,39.98
2023-07-11T08:08:46.569Z,39.98
2023-07-11T08:08:58.285Z,39.96
2023-07-11T08:09:09.604Z,39.97
2023-07-11T08:09:21.216Z,39.98
2023-07-11T08:09:32.555Z,39.97
2023-07-11T08:09:44.136Z,39.98
2023-07-11T08:09:55.475Z,39.97
2023-07-11T08:10:07.085Z,39.96
2023-07-11T08:10:18.396Z,39.96
2023-07-11T08:10:30.013Z,39.97
2023-07-11T08:10:41.358Z,39.96
2023-07-11T08:10:52.953Z,39.98
2023-07-11T08:11:04.500Z,39.98
2023-07-11T08:11:16.438Z,39.94
2023-07-11T08:11:27.769Z,39.97
2023-07-11T08:11:39.365Z,39.96
2023-07-11T08:11:50.711Z,39.97
2023-07-11T08:12:02.286Z,39.95
2023-07-11T08:12:13.603Z,39.97
2023-07-11T08:12:25.193Z,39.94
2023-07-11T08:12:36.527Z,39.96
2023-07-11T08:12:48.105Z,39.94
2023-07-11T08:12:59.460Z,39.95
2023-07-11T08:13:11.037Z,39.97
2023-07-11T08:13:22.357Z,39.94
2023-07-11T08:13:48.358Z,39.94
2023-07-11T08:13:58.448Z,40.07
2023-07-11T08:14:00.314Z,40.10
2023-07-11T08:14:10.074Z,40.06
2023-07-11T08:14:21.669Z,39.97
2023-07-11T08:14:33.009Z,39.97
2023-07-11T08:14:44.659Z,39.96
2023-07-11T08:14:56.032Z,39.97
2023-07-11T08:15:07.646Z,39.95
2023-07-11T08:15:18.973Z,39.97
2023-07-11T08:15:30.579Z,39.97
2023-07-11T08:15:41.908Z,39.96
2023-07-11T08:15:53.512Z,39.95
2023-07-11T08:16:15.470Z,39.95
2023-07-11T08:16:29.681Z,40.13
2023-07-11T08:16:31.661Z,40.12
2023-07-11T08:16:40.522Z,40.09
2023-07-11T08:16:51.874Z,40.04
2023-07-11T08:17:03.497Z,39.98
2023-07-11T08:17:14.879Z,39.98
2023-07-11T08:17:26.678Z,39.97
2023-07-11T08:17:38.289Z,39.98
2023-07-11T08:17:50.010Z,39.98
2023-07-11T08:18:01.369Z,39.93
2023-07-11T08:18:12.980Z,39.94
2023-07-11T08:18:24.293Z,39.95
2023-07-11T08:18:35.884Z,39.94
2023-07-11T08:18:47.204Z,39.97
2023-07-11T08:18:58.789Z,39.93
2023-07-11T08:19:10.115Z,39.95
2023-07-11T08:19:21.710Z,39.95
2023-07-11T08:19:33.043Z,39.98
2023-07-11T08:19:56.206Z,39.95
2023-07-11T08:20:07.818Z,39.95
2023-07-11T08:20:19.134Z,39.96
2023-07-11T08:20:30.699Z,39.93
2023-07-11T08:20:42.013Z,39.96
2023-07-11T08:20:53.573Z,39.95
2023-07-11T08:21:05.185Z,39.96
2023-07-11T08:21:16.950Z,39.95
2023-07-11T08:21:28.294Z,39.95
2023-07-11T08:21:39.889Z,39.94
2023-07-11T08:21:51.187Z,39.95
2023-07-11T08:22:02.778Z,39.96
2023-07-11T08:22:14.111Z,39.93
2023-07-11T08:22:25.728Z,39.95
2023-07-11T08:22:37.069Z,39.95
2023-07-11T08:22:48.666Z,39.94
2023-07-11T08:23:00.018Z,39.93
2023-07-11T08:23:11.609Z,39.92
2023-07-11T08:23:22.917Z,39.94
2023-07-11T08:23:34.487Z,39.93
2023-07-11T08:23:45.786Z,39.94
2023-07-11T08:23:57.372Z,39.92
2023-07-11T08:24:09.004Z,39.94
2023-07-11T08:24:20.650Z,39.95
2023-07-11T08:24:32.013Z,39.95
2023-07-11T08:24:43.624Z,39.93
2023-07-11T08:24:54.953Z,39.94
2023-07-11T08:25:06.530Z,39.94
2023-07-11T08:25:17.986Z,39.93
2023-07-11T08:25:29.554Z,39.92
2023-07-11T08:25:40.898Z,39.92
2023-07-11T08:25:54.099Z,39.91
2023-07-11T08:26:04.580Z,39.98
2023-07-11T08:26:16.152Z,39.94
2023-07-11T08:26:27.524Z,39.95
2023-07-11T08:26:39.126Z,39.93
2023-07-11T08:26:50.469Z,39.92
2023-07-11T08:27:02.018Z,39.92
2023-07-11T08:27:13.337Z,39.92
2023-07-11T08:27:24.924Z,39.92
2023-07-11T08:27:36.244Z,39.92
2023-07-11T08:27:47.847Z,39.92
2023-07-11T08:27:59.160Z,39.90
2023-07-11T08:28:10.783Z,39.92
2023-07-11T08:28:22.075Z,39.92
2023-07-11T08:28:33.693Z,39.91
2023-07-11T08:28:45.050Z,39.91
2023-07-11T08:28:56.602Z,39.90
2023-07-11T08:29:20.710Z,39.91
2023-07-11T08:29:28.753Z,40.06
2023-07-11T08:29:31.908Z,40.07
2023-07-11T08:29:43.248Z,39.98
2023-07-11T08:29:54.844Z,39.90
2023-07-11T08:30:06.161Z,39.95
2023-07-11T08:30:17.754Z,39.91
2023-07-11T08:30:29.091Z,39.88
2023-07-11T08:30:40.730Z,39.91
2023-07-11T08:30:52.106Z,39.93
2023-07-11T08:31:03.741Z,39.92
2023-07-11T08:31:15.077Z,39.93
2023-07-11T08:31:26.772Z,39.89
2023-07-11T08:31:38.166Z,39.92
2023-07-11T08:31:49.742Z,39.91
2023-07-11T08:32:01.070Z,39.90
2023-07-11T08:32:12.668Z,39.90
2023-07-11T08:32:24.024Z,39.90
2023-07-11T08:32:35.728Z,39.90
2023-07-11T08:32:47.073Z,39.90
2023-07-11T08:32:58.683Z,39.86
2023-07-11T08:33:10.009Z,39.91
2023-07-11T08:33:21.561Z,39.90
2023-07-11T08:33:32.903Z,39.89
2023-07-11T08:33:44.514Z,39.89
2023-07-11T08:33:55.810Z,39.89
2023-07-11T08:34:07.391Z,39.89
2023-07-11T08:34:18.749Z,39.91
2023-07-11T08:34:30.319Z,39.90
2023-07-11T08:34:41.642Z,39.89
2023-07-11T08:34:53.248Z,39.89
2023-07-11T08:35:04.578Z,39.87
2023-07-11T08:35:16.165Z,39.88
2023-07-11T08:35:27.504Z,39.89
2023-07-11T08:35:39.066Z,39.87
2023-07-11T08:35:50.391Z,39.89
2023-07-11T08:36:01.999Z,39.87
2023-07-11T08:36:13.316Z,39.88
2023-07-11T08:36:24.875Z,39.87
2023-07-11T08:36:36.190Z,39.88
2023-07-11T08:36:47.782Z,39.86
2023-07-11T08:36:59.245Z,39.88
2023-07-11T08:37:10.870Z,39.89
2023-07-11T08:37:22.192Z,39.90
2023-07-11T08:37:33.819Z,39.85
2023-07-11T08:37:45.126Z,39.88
2023-07-11T08:37:56.708Z,39.87
2023-07-11T08:38:08.051Z,39.86
2023-07-11T08:38:19.605Z,39.86
2023-07-11T08:38:30.928Z,39.88
2023-07-11T08:38:42.499Z,39.88
2023-07-11T08:38:53.805Z,39.87
2023-07-11T08:39:05.393Z,39.88
2023-07-11T08:39:16.722Z,39.88
2023-07-11T08:39:28.293Z,39.88
2023-07-11T08:39:39.640Z,39.86
2023-07-11T08:39:51.225Z,39.87
2023-07-11T08:40:02.558Z,39.87
2023-07-11T08:40:14.153Z,39.87
2023-07-11T08:40:37.985Z,39.88
2023-07-11T08:40:47.731Z,40.02
2023-07-11T08:40:49.506Z,40.03
2023-07-11T08:41:00.842Z,39.94
2023-07-11T08:41:12.457Z,39.87
2023-07-11T08:41:23.780Z,39.87
2023-07-11T08:41:35.369Z,39.85
2023-07-11T08:41:46.689Z,39.87
2023-07-11T08:41:58.297Z,39.87
2023-07-11T08:42:09.599Z,39.86
2023-07-11T08:42:21.205Z,39.85
2023-07-11T08:42:32.549Z,39.88
2023-07-11T08:42:44.118Z,39.87
2023-07-11T08:42:55.468Z,39.88
2023-07-11T08:43:07.074Z,39.86
2023-07-11T08:43:18.461Z,39.88
2023-07-11T08:43:30.058Z,39.87
2023-07-11T08:43:41.369Z,39.86
2023-07-11T08:43:52.930Z,39.85
2023-07-11T08:44:04.266Z,39.86
2023-07-11T08:44:15.860Z,39.86
2023-07-11T08:44:27.205Z,39.85
2023-07-11T08:44:38.798Z,39.85
2023-07-11T08:44:50.124Z,39.85
2023-07-11T08:45:04.787Z,39.84
2023-07-11T08:45:12.512Z,39.91
2023-07-11T08:45:23.813Z,39.88
2023-07-11T08:45:35.425Z,39.86
2023-07-11T08:45:50.626Z,39.85
2023-07-11T08:46:11.289Z,40.00
2023-07-11T08:46:13.156Z,40.01
2023-07-11T08:46:21.260Z,39.98
2023-07-11T08:46:32.612Z,39.88
2023-07-11T08:46:44.235Z,39.84
2023-07-11T08:46:55.609Z,39.88
2023-07-11T08:47:07.349Z,39.84
2023-07-11T08:47:18.839Z,39.87
2023-07-11T08:47:30.470Z,39.85
2023-07-11T08:47:41.799Z,39.83
2023-07-11T08:47:53.408Z,39.83
2023-07-11T08:48:04.795Z,39.84
2023-07-11T08:48:16.433Z,39.86
2023-07-11T08:48:27.789Z,39.85
2023-07-11T08:48:39.361Z,39.84
2023-07-11T08:48:50.691Z,39.85
2023-07-11T08:49:02.286Z,39.85
2023-07-11T08:49:13.623Z,39.85
2023-07-11T08:49:25.202Z,39.86
2023-07-11T08:49:36.555Z,39.83
2023-07-11T08:49:48.185Z,39.82
2023-07-11T08:49:59.522Z,39.85
2023-07-11T08:50:11.061Z,39.82
2023-07-11T08:50:22.366Z,39.83
2023-07-11T08:50:33.963Z,39.82
2023-07-11T08:50:45.277Z,39.85
2023-07-11T08:50:56.855Z,39.82
2023-07-11T08:51:08.473Z,39.84
2023-07-11T08:51:20.219Z,39.82
2023-07-11T08:51:31.527Z,39.85
2023-07-11T08:51:43.105Z,39.81
2023-07-11T08:51:54.449Z,39.82
2023-07-11T08:52:06.022Z,39.83
2023-07-11T08:52:17.362Z,39.84
2023-07-11T08:52:28.910Z,39.81
2023-07-11T08:52:40.264Z,39.81
2023-07-11T08:52:51.821Z,39.80
2023-07-11T08:53:03.162Z,39.81
2023-07-11T08:53:14.747Z,39.81
2023-07-11T08:53:26.084Z,39.81
2023-07-11T08:53:37.691Z,39.82
2023-07-11T08:53:49.006Z,39.82
2023-07-11T08:54:00.562Z,39.79
2023-07-11T08:54:11.877Z,39.82
2023-07-11T08:54:23.433Z,39.80
2023-07-11T08:54:34.756Z,39.81
2023-07-11T08:54:46.366Z,39.82
2023-07-11T08:54:57.678Z,39.79
2023-07-11T08:55:09.301Z,39.81
2023-07-11T08:55:20.640Z,39.81
